Time;durP1;ratioP1;P1;durP2;ratioP2;P2;SDS_P1;SDS_P2;PMS_P1;PMS_P2;Temp;Humidity;BMP_temperature;BMP_pressure;BME280_temperature;BME280_humidity;BME280_pressure;Samples;Min_cycle;Max_cycle;Signal;HPM_P1;HPM_P2
2022/09/04 00:00:13;;;;;;;8.32;4.15;;;;;;;18.63;75.88;100978.69;5095936;28;20061;-57
2022/09/04 00:03:12;;;;;;;10.25;4.30;;;;;;;18.65;75.76;100990.09;5096327;28;20131;-56
2022/09/04 00:05:57;;;;;;;7.82;4.03;;;;;;;18.73;75.79;100979.16;5091394;28;20036;-55
2022/09/04 00:08:58;;;;;;;9.82;4.72;;;;;;;18.74;75.38;100989.72;5095977;28;20477;-56
2022/09/04 00:11:36;;;;;;;11.18;4.80;;;;;;;18.72;75.97;101001.66;5095425;28;20094;-55
2022/09/04 00:14:12;;;;;;;9.68;4.63;;;;;;;18.73;76.07;100996.09;5096216;28;20089;-56
2022/09/04 00:16:57;;;;;;;9.23;4.13;;;;;;;18.59;76.06;100989.88;5095577;28;20055;-56
2022/09/04 00:19:39;;;;;;;8.48;4.25;;;;;;;18.45;76.94;100996.22;5095679;28;20044;-55
2022/09/04 00:25:34;;;;;;;7.82;4.00;;;;;;;18.44;77.18;101002.59;5149748;27;19925;-56
2022/09/04 00:28:10;;;;;;;9.15;4.40;;;;;;;18.52;76.72;101006.97;5152087;27;20372;-55
2022/09/04 00:30:44;;;;;;;9.98;4.35;;;;;;;18.52;76.89;100999.75;5151900;27;20043;-55
2022/09/04 00:33:21;;;;;;;10.32;4.40;;;;;;;18.42;77.22;101008.16;5151467;27;20512;-55
2022/09/04 00:35:55;;;;;;;10.00;4.43;;;;;;;18.47;77.10;101018.31;5152203;27;20107;-57
2022/09/04 00:38:53;;;;;;;11.48;4.32;;;;;;;18.41;77.21;101011.91;5151734;27;20043;-55
2022/09/04 00:42:00;;;;;;;11.48;4.65;;;;;;;18.44;76.76;101007.97;5152260;27;20039;-56
2022/09/04 00:44:46;;;;;;;10.60;5.25;;;;;;;18.44;76.93;101007.16;5151964;27;20045;-56
2022/09/04 00:47:47;;;;;;;11.95;4.90;;;;;;;18.43;77.18;101009.00;5151605;27;20043;-56
2022/09/04 00:50:42;;;;;;;12.48;5.40;;;;;;;18.47;77.14;101010.25;5151826;27;20095;-55
2022/09/04 00:53:49;;;;;;;13.15;5.78;;;;;;;18.44;77.40;101021.41;5151663;27;20039;-55
2022/09/04 00:56:37;;;;;;;13.65;5.72;;;;;;;18.48;77.12;101017.31;5151463;27;20063;-55
2022/09/04 00:59:37;;;;;;;12.25;5.45;;;;;;;18.41;77.19;101022.63;5151665;27;20087;-55
2022/09/04 01:02:24;;;;;;;12.07;5.25;;;;;;;18.45;77.28;101019.56;5112091;28;20065;-57
2022/09/04 01:05:19;;;;;;;13.30;5.75;;;;;;;18.42;77.50;101020.78;5131012;28;20050;-56
2022/09/04 01:07:58;;;;;;;11.90;5.20;;;;;;;18.29;77.73;101026.09;5130608;28;20046;-56
2022/09/04 01:10:50;;;;;;;11.13;5.25;;;;;;;18.34;77.84;101032.50;5131035;28;20047;-55
2022/09/04 01:13:26;;;;;;;;;;;;;;;18.30;78.09;101036.63;5131023;28;20049;-55
2022/09/04 01:16:09;;;;;;;9.55;5.00;;;;;;;18.28;78.02;101030.63;5131000;28;19920;-56
2022/09/04 01:19:02;;;;;;;11.20;5.32;;;;;;;18.28;78.24;101029.78;5112458;28;20096;-56
2022/09/04 01:22:02;;;;;;;14.07;5.60;;;;;;;18.37;77.96;101037.50;5130459;28;20409;-56
2022/09/04 01:25:09;;;;;;;13.20;5.93;;;;;;;18.11;79.33;101040.84;5095337;28;20056;-56
2022/09/04 01:28:02;;;;;;;11.65;5.60;;;;;;;18.16;79.11;101038.41;5130515;28;20040;-55
2022/09/04 01:30:40;;;;;;;11.70;5.50;;;;;;;18.31;78.78;101043.63;5112076;28;20513;-56
2022/09/04 01:33:32;;;;;;;15.07;5.90;;;;;;;18.19;79.17;101042.53;5130063;28;20491;-56
2022/09/04 01:36:09;;;;;;;11.15;5.32;;;;;;;18.05;79.99;101041.63;5120887;27;20830;-56
2022/09/04 01:38:52;;;;;;;10.63;5.28;;;;;;;18.11;79.76;101045.38;5117212;27;20088;-56
2022/09/04 01:41:28;;;;;;;10.85;5.38;;;;;;;18.11;79.47;101045.38;5125364;27;20043;-56
2022/09/04 01:43:55;;;;;;;10.52;5.07;;;;;;;18.21;79.03;101046.69;5137258;27;20047;-55
2022/09/04 01:46:46;;;;;;;11.20;5.07;;;;;;;18.13;79.36;101049.50;5118576;27;20039;-56
2022/09/04 01:49:36;;;;;;;8.82;4.72;;;;;;;18.11;79.20;101050.75;5136965;27;20043;-56
2022/09/04 01:54:55;;;;;;;9.20;4.95;;;;;;;18.14;79.14;101053.06;5097800;27;20409;-55
2022/09/04 02:00:18;;;;;;;9.93;4.90;;;;;;;18.11;79.25;101056.94;5110366;27;20355;-55
2022/09/04 02:06:04;;;;;;;9.07;4.95;;;;;;;18.18;78.97;101068.56;5110310;27;20347;-55
2022/09/04 02:09:10;;;;;;;10.10;4.93;;;;;;;18.11;79.19;101056.13;5110894;28;20044;-56
2022/09/04 02:11:44;;;;;;;14.23;5.35;;;;;;;18.18;78.97;101060.50;5110905;28;20105;-56
2022/09/04 02:14:33;;;;;;;14.00;5.18;;;;;;;17.99;79.56;101067.41;5111206;28;20081;-56
2022/09/04 02:17:09;;;;;;;16.33;5.10;;;;;;;18.08;79.34;101059.19;5110755;28;20044;-54
2022/09/04 02:20:16;;;;;;;8.75;4.57;;;;;;;18.07;79.42;101069.09;5110977;28;20100;-55
2022/09/04 02:23:12;;;;;;;11.15;5.10;;;;;;;18.03;79.57;101074.03;5078879;28;20047;-56
2022/09/04 02:25:54;;;;;;;11.80;5.80;;;;;;;17.93;80.20;101067.34;5110488;28;20065;-56
2022/09/04 02:28:51;;;;;;;8.80;5.00;;;;;;;17.99;79.85;101083.50;5110854;28;20046;-56
2022/09/04 02:31:33;;;;;;;15.35;5.40;;;;;;;17.95;80.53;101087.56;5110458;28;20125;-55
2022/09/04 02:34:08;;;;;;;11.48;5.55;;;;;;;17.94;80.55;101088.63;5110138;28;20068;-56
2022/09/04 02:36:47;;;;;;;11.20;5.60;;;;;;;17.91;80.47;101083.63;5110859;28;20064;-56
2022/09/04 02:39:36;;;;;;;9.48;5.32;;;;;;;17.95;80.69;101087.56;5111352;28;20056;-55
2022/09/04 02:42:18;;;;;;;11.52;5.30;;;;;;;17.94;80.34;101085.13;5110370;28;20510;-55
2022/09/04 02:48:00;;;;;;;10.65;5.38;;;;;;;17.86;80.78;101090.59;5111137;27;20380;-55
2022/09/04 02:50:54;;;;;;;12.68;6.25;;;;;;;17.82;81.24;101096.31;5111211;28;20050;-55
2022/09/04 02:53:48;;;;;;;10.45;6.03;;;;;;;17.75;81.60;101087.38;5111003;28;20047;-55
2022/09/04 02:56:30;;;;;;;10.55;5.90;;;;;;;17.70;82.17;101097.03;5110880;28;20482;-55
2022/09/04 03:01:59;;;;;;;12.50;6.60;;;;;;;17.72;82.06;101092.31;5090778;28;20837;-56
2022/09/04 03:07:16;;;;;;;11.90;7.00;;;;;;;17.76;82.12;101082.88;5110767;27;20363;-55
2022/09/04 03:09:49;;;;;;;12.27;6.57;;;;;;;17.65;82.36;101092.25;5111232;28;20104;-55
2022/09/04 03:12:41;;;;;;;11.98;6.93;;;;;;;17.61;82.75;101086.44;5096206;28;20040;-55
2022/09/04 03:15:40;;;;;;;15.27;7.25;;;;;;;17.63;82.78;101092.44;5089165;28;20063;-55
2022/09/04 03:18:22;;;;;;;12.02;7.43;;;;;;;17.59;82.92;101093.88;5090647;28;20071;-55
2022/09/04 03:20:59;;;;;;;14.32;7.28;;;;;;;17.50;83.12;101084.28;5090422;28;20068;-55
2022/09/04 03:23:38;;;;;;;12.00;7.38;;;;;;;17.56;83.11;101093.41;5053159;28;20090;-55
2022/09/04 03:26:20;;;;;;;12.75;6.93;;;;;;;17.62;82.55;101098.00;5090358;28;20047;-56
2022/09/04 03:29:23;;;;;;;12.38;6.90;;;;;;;17.60;83.16;101102.72;5089471;28;20056;-56
2022/09/04 03:32:18;;;;;;;15.07;7.15;;;;;;;17.60;82.95;101092.81;5089843;28;20516;-56
2022/09/04 03:35:24;;;;;;;13.85;6.57;;;;;;;17.61;82.69;101104.41;5089740;28;20452;-55
2022/09/04 03:38:16;;;;;;;11.30;6.55;;;;;;;17.57;82.70;101095.91;5089723;28;20072;-56
2022/09/04 03:40:59;;;;;;;12.75;6.85;;;;;;;17.59;82.87;101104.59;5090159;28;20053;-55
2022/09/04 03:43:40;;;;;;;13.23;6.68;;;;;;;17.59;83.04;101101.06;5090646;28;20060;-55
2022/09/04 03:46:24;;;;;;;12.80;6.85;;;;;;;17.53;83.11;101110.69;5090150;28;20482;-55
2022/09/04 03:49:17;;;;;;;11.50;6.68;;;;;;;17.56;83.21;101110.31;5090076;28;20528;-55
2022/09/04 03:52:23;;;;;;;12.82;6.95;;;;;;;17.50;83.23;101111.09;5089694;28;20052;-55
2022/09/04 03:55:17;;;;;;;11.95;6.72;;;;;;;17.45;83.12;101113.53;5087725;28;20071;-55
2022/09/04 04:01:24;;;;;;;14.07;7.15;;;;;;;17.37;83.90;101124.34;5110824;27;20380;-55
2022/09/04 04:04:34;;;;;;;16.38;7.07;;;;;;;17.34;84.23;101128.25;5110907;28;20128;-55
2022/09/04 04:07:27;;;;;;;13.43;7.40;;;;;;;17.29;84.05;101135.22;5110987;28;20394;-56
2022/09/04 04:13:07;;;;;;;15.30;7.55;;;;;;;17.30;84.17;101128.81;5111287;27;20351;-55
2022/09/04 04:16:14;;;;;;;15.95;7.45;;;;;;;17.35;84.13;101131.75;5111005;28;20127;-55
2022/09/04 04:19:20;;;;;;;12.13;7.35;;;;;;;17.31;84.14;101135.84;5110891;28;20736;-56
2022/09/04 04:24:48;;;;;;;14.73;7.22;;;;;;;17.30;83.90;101132.34;5167343;27;20130;-56
2022/09/04 04:27:45;;;;;;;14.10;7.57;;;;;;;17.20;84.24;101135.31;5172980;27;20039;-55
2022/09/04 04:30:15;;;;;;;14.30;8.07;;;;;;;17.19;84.36;101130.13;5172917;27;20442;-56
2022/09/04 04:33:10;;;;;;;13.88;7.70;;;;;;;17.26;84.33;101137.25;5173172;27;20042;-55
2022/09/04 04:35:49;;;;;;;15.35;8.52;;;;;;;17.30;84.27;101137.72;5163047;27;20507;-55
2022/09/04 04:41:20;;;;;;;16.15;7.78;;;;;;;17.19;84.31;101146.22;5111008;27;20574;-55
2022/09/04 04:44:02;;;;;;;12.55;8.27;;;;;;;17.22;84.52;101145.84;5110986;28;20047;-56
2022/09/04 04:47:10;;;;;;;14.68;8.43;;;;;;;17.20;84.41;101159.44;5110898;28;20040;-56
2022/09/04 04:50:16;;;;;;;14.68;7.53;;;;;;;17.21;84.35;101154.91;5110446;28;20044;-56
2022/09/04 04:53:17;;;;;;;17.15;7.82;;;;;;;17.14;84.30;101159.38;5110810;28;20089;-57
2022/09/04 04:56:13;;;;;;;14.40;8.00;;;;;;;17.18;84.31;101163.34;5110404;28;20066;-57
2022/09/04 04:58:57;;;;;;;12.27;6.85;;;;;;;17.15;84.59;101155.66;5110312;28;20383;-56
2022/09/04 05:01:49;;;;;;;14.55;6.93;;;;;;;17.15;84.48;101159.16;5110863;28;20043;-57
2022/09/04 05:04:36;;;;;;;20.10;7.22;;;;;;;17.21;84.26;101171.81;5110172;28;20044;-56
2022/09/04 05:07:18;;;;;;;12.13;6.80;;;;;;;17.20;84.18;101180.88;5110596;28;20085;-56
2022/09/04 05:09:56;;;;;;;12.90;6.82;;;;;;;17.20;84.38;101177.38;5110600;28;20051;-56
2022/09/04 05:12:56;;;;;;;13.23;7.20;;;;;;;17.19;84.12;101181.91;5110532;28;20528;-56
2022/09/04 05:15:34;;;;;;;12.07;6.93;;;;;;;17.25;84.15;101191.06;5110235;28;20401;-56
2022/09/04 05:18:13;;;;;;;12.00;6.77;;;;;;;17.25;84.01;101193.72;5109964;28;20039;-56
2022/09/04 05:23:43;;;;;;;12.88;6.57;;;;;;;17.13;84.19;101205.94;5001124;27;20125;-56
2022/09/04 05:26:36;;;;;;;11.32;6.65;;;;;;;17.17;84.27;101207.22;5111024;28;20051;-55
2022/09/04 05:29:16;;;;;;;13.27;6.80;;;;;;;17.16;83.95;101214.44;5111110;28;20062;-55
2022/09/04 05:31:58;;;;;;;12.48;6.53;;;;;;;17.08;84.42;101215.38;5110372;28;20433;-56
2022/09/04 05:34:56;;;;;;;12.02;6.65;;;;;;;17.13;84.31;101222.03;5109729;28;20126;-55
2022/09/04 05:37:49;;;;;;;12.82;6.82;;;;;;;17.18;84.35;101227.66;5111135;28;20493;-55
2022/09/04 05:43:27;;;;;;;12.23;6.88;;;;;;;17.07;84.53;101226.28;5111050;27;20355;-55
2022/09/04 05:46:10;;;;;;;16.90;7.28;;;;;;;17.19;83.82;101229.31;5111314;28;20489;-55
2022/09/04 05:49:06;;;;;;;15.40;7.45;;;;;;;17.24;83.67;101229.59;5110943;28;20063;-55
2022/09/04 05:52:04;;;;;;;10.90;6.10;;;;;;;17.26;83.96;101232.91;5111206;28;20118;-55
2022/09/04 05:55:03;;;;;;;12.20;6.57;;;;;;;17.29;83.27;101242.44;5110188;28;20044;-55
2022/09/04 05:57:58;;;;;;;13.32;7.85;;;;;;;17.33;83.18;101249.09;5129339;28;20049;-55
2022/09/04 06:00:35;;;;;;;12.43;7.07;;;;;;;17.35;83.33;101247.88;5131081;27;20055;-55
2022/09/04 06:03:33;;;;;;;11.63;6.90;;;;;;;17.34;83.30;101250.78;5131575;27;20050;-55
2022/09/04 06:06:19;;;;;;;14.20;7.47;;;;;;;17.36;83.45;101260.28;5111087;28;20067;-56
2022/09/04 06:09:25;;;;;;;15.82;7.72;;;;;;;17.41;83.00;101257.88;5110548;28;20042;-55
2022/09/04 06:12:10;;;;;;;13.55;7.70;;;;;;;17.29;83.88;101261.22;5110327;28;20081;-55
2022/09/04 06:15:01;;;;;;;15.23;7.35;;;;;;;17.35;83.62;101265.81;5110577;28;20558;-55
2022/09/04 06:17:42;;;;;;;13.82;7.43;;;;;;;17.35;83.41;101265.81;5110507;28;20058;-55
2022/09/04 06:23:20;;;;;;;14.63;7.90;;;;;;;17.45;83.11;101269.88;5075231;27;20369;-55
2022/09/04 06:26:16;;;;;;;12.68;7.00;;;;;;;17.50;82.72;101274.72;5110841;28;20065;-55
2022/09/04 06:29:04;;;;;;;13.23;7.10;;;;;;;17.46;82.95;101273.41;5109621;28;20481;-55
2022/09/04 06:31:49;;;;;;;13.70;7.53;;;;;;;17.55;82.36;101268.75;5110334;28;20490;-54
2022/09/04 06:34:39;;;;;;;11.65;6.90;;;;;;;17.68;81.86;101273.47;5110857;28;20039;-55
2022/09/04 06:37:40;;;;;;;16.45;6.85;;;;;;;17.62;81.91;101277.72;5110657;28;20123;-55
2022/09/04 06:40:21;;;;;;;12.17;6.97;;;;;;;17.65;81.83;101278.19;5110439;28;20050;-55
2022/09/04 06:43:07;;;;;;;12.55;6.65;;;;;;;17.69;81.20;101275.97;5110562;28;20636;-54
2022/09/04 06:49:28;;;;;;;12.02;6.28;;;;;;;17.82;80.53;101283.34;5110998;27;20817;-55
2022/09/04 06:52:20;;;;;;;14.55;6.95;;;;;;;17.91;80.77;101287.59;5110642;28;20077;-55
2022/09/04 06:54:59;;;;;;;13.70;6.30;;;;;;;17.86;80.49;101279.28;5110871;28;20383;-55
2022/09/04 06:58:05;;;;;;;12.65;7.07;;;;;;;17.97;79.88;101288.69;5110853;28;20047;-55
2022/09/04 07:00:52;;;;;;;12.45;5.90;;;;;;;18.01;80.13;101290.81;5110584;28;20040;-55
2022/09/04 07:03:58;;;;;;;12.15;6.00;;;;;;;17.97;80.23;101292.22;5093407;28;20048;-55
2022/09/04 07:06:50;;;;;;;11.88;6.07;;;;;;;18.11;79.98;101295.03;5109491;28;20040;-56
2022/09/04 07:09:45;;;;;;;13.40;6.23;;;;;;;18.28;78.89;101301.84;5102958;28;20045;-55
2022/09/04 07:12:35;;;;;;;11.48;6.05;;;;;;;18.32;78.86;101296.91;5110744;28;20056;-56
2022/09/04 07:15:28;;;;;;;11.90;6.30;;;;;;;18.39;78.29;101300.47;5110315;28;20067;-55
2022/09/04 07:18:11;;;;;;;10.68;6.07;;;;;;;18.42;78.26;101302.78;5109554;28;20039;-55
2022/09/04 07:23:49;;;;;;;10.90;6.35;;;;;;;18.44;78.65;101311.47;5075403;27;20571;-56
2022/09/04 07:26:25;;;;;;;16.00;7.10;;;;;;;18.47;78.48;101305.72;5111460;28;20115;-56
2022/09/04 07:29:21;;;;;;;13.70;6.88;;;;;;;18.64;78.19;101305.47;5111223;28;20051;-56
2022/09/04 07:32:14;;;;;;;14.15;6.80;;;;;;;18.64;77.71;101317.03;5110888;28;20213;-58
2022/09/04 07:34:50;;;;;;;13.60;7.20;;;;;;;18.66;77.54;101325.72;5106293;28;20052;-57
2022/09/04 07:40:19;;;;;;;17.20;7.30;;;;;;;18.85;77.17;101323.47;5110909;27;20347;-56
2022/09/04 07:42:52;;;;;;;16.13;7.38;;;;;;;18.97;76.85;101324.56;5091060;28;20110;-58
2022/09/04 07:45:29;;;;;;;18.38;6.85;;;;;;;18.98;76.87;101332.44;5090381;28;20040;-57
2022/09/04 07:48:20;;;;;;;14.60;7.60;;;;;;;19.04;76.65;101328.13;5090859;28;20051;-57
2022/09/04 07:51:10;;;;;;;15.15;7.40;;;;;;;19.21;75.69;101322.47;5090631;28;20048;-57
2022/09/04 07:56:53;;;;;;;16.02;7.60;;;;;;;19.39;75.10;101330.84;5112235;27;20879;-56
2022/09/04 07:59:36;;;;;;;15.57;6.85;;;;;;;19.47;75.02;101333.38;5131334;27;20092;-56
2022/09/04 08:05:23;;;;;;;12.68;6.43;;;;;;;19.54;74.53;101334.25;5110465;27;20875;-55
2022/09/04 08:08:09;;;;;;;15.00;8.10;;;;;;;19.55;74.20;101332.38;5111361;28;20101;-56
2022/09/04 08:10:59;;;;;;;15.95;6.53;;;;;;;19.80;73.71;101340.00;5110870;28;20439;-54
2022/09/04 08:14:01;;;;;;;11.93;6.72;;;;;;;19.83;73.77;101340.44;5111246;28;20933;-56
2022/09/04 08:16:40;;;;;;;15.30;6.78;;;;;;;19.99;72.97;101336.53;5110677;28;20059;-57
2022/09/04 08:19:39;;;;;;;14.10;6.45;;;;;;;20.04;72.36;101336.75;5110807;28;20512;-56
2022/09/04 08:22:12;;;;;;;15.45;6.15;;;;;;;20.32;72.41;101347.41;5105852;28;20473;-56
2022/09/04 08:24:54;;;;;;;13.63;5.85;;;;;;;20.47;70.93;101346.41;5084815;28;20048;-57
2022/09/04 08:27:56;;;;;;;12.65;6.85;;;;;;;20.58;70.37;101347.69;5110871;28;20121;-56
2022/09/04 08:30:24;;;;;;;14.73;6.18;;;;;;;20.68;70.06;101348.13;5125871;28;20048;-56
2022/09/04 08:33:14;;;;;;;12.05;6.55;;;;;;;20.69;69.29;101358.69;5100764;28;20105;-56
2022/09/04 08:35:53;;;;;;;10.80;5.75;;;;;;;20.99;69.08;101358.31;5110506;28;20047;-56
2022/09/04 08:44:34;;;;;;;12.65;5.55;;;;;;;21.58;66.99;101353.84;5094106;27;1161231;-55
2022/09/04 08:47:38;;;;;;;14.80;5.53;;;;;;;21.66;66.56;101359.00;5110795;28;20070;-55
2022/09/04 08:50:17;;;;;;;16.13;5.72;;;;;;;21.91;65.97;101360.19;5110943;28;20044;-56
2022/09/04 08:53:24;;;;;;;10.65;5.63;;;;;;;22.25;63.77;101369.78;5111103;28;20044;-56
2022/09/04 08:56:28;;;;;;;18.77;6.20;;;;;;;22.07;63.99;101364.28;5110822;28;20052;-55
2022/09/04 09:02:46;;;;;;;10.50;5.05;;;;;;;22.31;63.05;101363.53;5111117;27;20387;-57
2022/09/04 09:05:54;;;;;;;10.57;4.85;;;;;;;22.49;62.11;101370.09;5106328;28;20075;-56
2022/09/04 09:09:01;;;;;;;11.63;4.65;;;;;;;22.42;62.44;101367.44;5107036;28;20093;-57
2022/09/04 09:12:07;;;;;;;11.00;4.60;;;;;;;22.74;61.59;101368.25;5110821;28;20047;-57
2022/09/04 09:15:14;;;;;;;12.70;4.22;;;;;;;22.93;60.55;101371.81;5110634;28;20054;-57
2022/09/04 09:18:02;;;;;;;9.95;4.78;;;;;;;23.21;59.83;101367.84;5110800;28;20040;-57
2022/09/04 09:21:01;;;;;;;11.25;4.28;;;;;;;23.33;58.76;101376.91;5110693;28;20044;-56
2022/09/04 09:26:33;;;;;;;11.30;4.07;;;;;;;23.87;57.83;101371.78;5111289;27;20383;-56
2022/09/04 09:32:44;;;;;;;10.75;4.20;;;;;;;26.35;50.16;101368.34;5110488;27;20358;-56
2022/09/04 09:35:45;;;;;;;10.32;3.90;;;;;;;27.81;46.62;101377.41;5110278;28;20039;-56
2022/09/04 09:38:42;;;;;;;10.63;3.80;;;;;;;29.10;43.23;101376.75;5107022;28;20512;-57
2022/09/04 09:41:40;;;;;;;12.02;3.92;;;;;;;29.68;41.05;101368.59;5107391;28;20043;-57
2022/09/04 09:44:34;;;;;;;9.48;3.72;;;;;;;29.32;41.97;101365.69;5110706;28;20126;-57
2022/09/04 09:47:40;;;;;;;9.05;4.35;;;;;;;29.22;41.29;101366.47;5109497;28;20044;-56
2022/09/04 09:50:35;;;;;;;10.40;3.88;;;;;;;28.95;42.50;101369.28;5110602;28;20047;-57
2022/09/04 09:53:33;;;;;;;11.27;5.00;;;;;;;29.18;41.60;101370.00;5110794;28;20113;-57
2022/09/04 09:56:31;;;;;;;12.13;4.80;;;;;;;29.18;41.55;101365.38;5110714;28;20052;-57
2022/09/04 09:59:37;;;;;;;14.43;4.32;;;;;;;28.52;42.79;101366.47;5106184;28;20070;-57
2022/09/04 10:02:37;;;;;;;10.45;3.72;;;;;;;28.60;42.78;101351.53;5089228;28;20048;-57
2022/09/04 10:08:27;;;;;;;17.35;3.53;;;;;;;28.95;42.18;101369.28;5173155;27;20174;-56
2022/09/04 10:11:13;;;;;;;9.00;3.70;;;;;;;29.00;42.26;101369.31;5152002;27;20118;-56
2022/09/04 10:17:13;;;;;;;10.98;3.75;;;;;;;28.88;42.22;101364.03;5110821;27;20358;-56
2022/09/04 10:20:15;;;;;;;12.05;4.00;;;;;;;28.89;42.13;101367.59;5110940;28;20047;-56
2022/09/04 10:23:22;;;;;;;11.55;3.88;;;;;;;28.87;42.82;101367.00;5079958;28;20043;-56
2022/09/04 10:26:27;;;;;;;13.52;3.85;;;;;;;28.57;42.85;101365.69;5110891;28;20031;-55
2022/09/04 10:29:24;;;;;;;8.55;3.45;;;;;;;28.46;42.92;101366.66;5110730;28;20126;-56
2022/09/04 10:35:31;;;;;;;9.88;3.40;;;;;;;28.24;42.97;101364.00;5106136;27;20395;-57
2022/09/04 10:38:08;;;;;;;8.98;3.45;;;;;;;28.69;42.66;101362.81;5105211;28;20044;-57
2022/09/04 10:41:15;;;;;;;13.57;3.78;;;;;;;28.42;42.22;101365.53;5110887;28;20040;-56
2022/09/04 10:44:10;;;;;;;9.52;4.07;;;;;;;28.50;42.27;101362.34;5110684;28;20067;-56
2022/09/04 10:47:02;;;;;;;11.93;3.70;;;;;;;27.91;43.25;101363.13;5111276;28;20051;-55
2022/09/04 10:50:01;;;;;;;10.65;3.53;;;;;;;28.46;42.40;101364.75;5111042;28;20052;-56
2022/09/04 10:53:07;;;;;;;8.27;2.90;;;;;;;28.19;42.28;101363.94;5110590;28;20040;-56
2022/09/04 10:56:15;;;;;;;8.13;3.60;;;;;;;27.63;42.97;101361.38;5110662;28;20108;-56
2022/09/04 10:58:48;;;;;;;8.52;2.92;;;;;;;28.07;43.19;101359.47;5110464;28;20047;-57
2022/09/04 11:04:25;;;;;;;8.00;3.10;;;;;;;28.43;41.22;101365.25;5110593;27;20384;-56
2022/09/04 11:07:21;;;;;;;7.03;3.00;;;;;;;28.73;40.04;101365.84;5111028;28;20047;-56
2022/09/04 11:10:23;;;;;;;8.57;3.20;;;;;;;28.65;41.04;101359.78;5111196;28;20047;-56
2022/09/04 11:13:06;;;;;;;12.30;3.40;;;;;;;28.22;41.70;101356.06;5110883;28;20119;-56
2022/09/04 11:16:08;;;;;;;12.90;3.28;;;;;;;27.70;42.56;101362.00;5109978;28;20048;-57
2022/09/04 11:19:07;;;;;;;11.55;3.20;;;;;;;27.77;42.70;101357.19;5110996;28;20112;-56
2022/09/04 11:21:57;;;;;;;10.50;2.80;;;;;;;27.91;42.47;101363.13;5110543;28;20059;-57
2022/09/04 11:24:58;;;;;;;10.80;3.20;;;;;;;28.28;42.84;101352.31;5079109;28;20126;-57
2022/09/04 11:34:12;;;;;;;8.45;3.13;;;;;;;26.88;44.67;101355.38;5110935;27;20367;-55
2022/09/04 11:37:09;;;;;;;9.30;3.22;;;;;;;27.57;43.15;101349.59;5090599;28;20098;-55
2022/09/04 11:39:54;;;;;;;15.95;3.40;;;;;;;26.88;44.34;101353.47;5090559;28;20070;-55
2022/09/04 11:42:38;;;;;;;9.48;3.45;;;;;;;26.91;44.21;101352.19;5089403;28;20044;-56
2022/09/04 11:51:45;;;;;;;11.07;3.90;;;;;;;26.39;45.48;101355.91;5070133;28;20357;-55
2022/09/04 11:54:51;;;;;;;10.07;3.30;;;;;;;26.32;46.42;101350.63;5070602;28;20090;-56
2022/09/04 11:57:34;;;;;;;9.98;3.42;;;;;;;26.30;45.71;101352.75;5067621;28;20074;-56
2022/09/04 12:00:14;;;;;;;12.77;3.28;;;;;;;26.09;46.08;101354.28;5050376;28;20073;-56
2022/09/04 12:06:00;;;;;;;12.00;3.15;;;;;;;26.19;46.18;101353.66;5106018;27;20397;-56
2022/09/04 12:09:07;;;;;;;14.52;3.10;;;;;;;26.21;45.19;101348.78;5107014;28;20381;-57
2022/09/04 12:12:10;;;;;;;10.38;2.92;;;;;;;25.66;46.83;101352.84;5109367;28;20074;-57
2022/09/04 12:15:04;;;;;;;6.85;2.72;;;;;;;25.76;46.80;101357.66;5110335;28;20074;-57
2022/09/04 12:17:55;;;;;;;6.50;2.83;;;;;;;25.93;46.21;101355.88;5110605;28;20405;-57
2022/09/04 12:20:49;;;;;;;7.28;2.80;;;;;;;25.98;45.97;101353.28;5110164;28;20105;-57
2022/09/04 12:23:42;;;;;;;10.90;2.65;;;;;;;26.12;46.32;101345.63;5072371;28;20054;-57
2022/09/04 12:26:48;;;;;;;9.27;3.00;;;;;;;26.32;45.55;101353.34;5110934;28;20074;-57
2022/09/04 12:29:55;;;;;;;6.65;2.70;;;;;;;26.77;44.99;101357.13;5110408;28;20533;-57
2022/09/04 12:32:47;;;;;;;8.95;2.80;;;;;;;26.83;44.39;101352.59;5109563;28;20441;-57
2022/09/04 12:35:53;;;;;;;7.25;2.90;;;;;;;26.66;44.72;101353.41;5110338;28;20036;-57
2022/09/04 12:38:34;;;;;;;7.10;2.60;;;;;;;26.96;44.71;101350.34;5110373;28;20048;-57
2022/09/04 12:41:16;;;;;;;7.85;2.88;;;;;;;27.02;44.17;101345.00;5110447;28;20048;-56
2022/09/04 12:46:49;;;;;;;9.65;2.58;;;;;;;27.72;42.08;101354.38;5110986;27;20905;-56
2022/09/04 12:49:56;;;;;;;7.75;2.55;;;;;;;27.88;40.45;101358.13;5092841;28;20431;-55
2022/09/04 12:55:48;;;;;;;7.68;2.50;;;;;;;28.03;38.31;101361.03;5110648;27;20355;-56
2022/09/04 12:58:47;;;;;;;7.20;2.50;;;;;;;28.29;38.40;101353.97;5110849;28;20122;-56
2022/09/04 13:01:37;;;;;;;9.32;2.50;;;;;;;28.35;37.67;101363.00;5110581;28;20039;-56
2022/09/04 13:04:28;;;;;;;7.90;2.42;;;;;;;28.46;38.33;101359.28;5110580;28;20047;-57
2022/09/04 13:07:25;;;;;;;8.87;2.20;;;;;;;28.52;37.90;101361.00;5110849;28;20048;-58
2022/09/04 13:10:25;;;;;;;6.05;2.30;;;;;;;28.80;37.83;101367.25;5109336;28;20047;-57
2022/09/04 13:13:32;;;;;;;9.50;2.40;;;;;;;29.03;37.26;101357.84;5110685;28;20048;-57
2022/09/04 13:16:26;;;;;;;12.20;2.63;;;;;;;29.75;35.31;101369.22;5110471;28;20404;-57
2022/09/04 13:19:34;;;;;;;9.25;2.90;;;;;;;30.50;33.96;101354.34;5110718;28;20048;-57
2022/09/04 13:22:20;;;;;;;8.85;2.50;;;;;;;31.04;33.01;101358.44;5103394;28;20448;-57
2022/09/04 13:25:12;;;;;;;6.68;2.60;;;;;;;30.94;31.16;101362.00;5096075;28;20078;-57
2022/09/04 13:27:52;;;;;;;6.07;2.33;;;;;;;30.40;32.01;101360.66;5109529;28;20505;-56
2022/09/04 13:30:22;;;;;;;6.93;2.40;;;;;;;30.53;31.42;101356.56;5110502;28;20048;-57
2022/09/04 13:33:18;;;;;;;6.13;2.50;;;;;;;30.84;31.34;101362.00;5110469;28;20043;-57
2022/09/04 13:39:10;;;;;;;9.73;2.78;;;;;;;30.72;31.60;101360.34;5090426;28;20399;-57
2022/09/04 13:42:04;;;;;;;10.50;2.67;;;;;;;30.46;32.47;101364.22;5078842;28;20040;-57
2022/09/04 13:44:53;;;;;;;5.55;2.30;;;;;;;30.26;31.85;101368.53;5069222;28;20071;-57
2022/09/04 13:47:24;;;;;;;6.47;2.40;;;;;;;29.89;32.94;101371.44;5070733;28;20094;-56
2022/09/04 13:50:01;;;;;;;8.82;2.40;;;;;;;29.33;33.22;101370.09;5069216;28;20044;-57
2022/09/04 13:52:38;;;;;;;6.28;2.50;;;;;;;29.25;33.58;101373.31;5068902;28;20046;-57
2022/09/04 13:55:18;;;;;;;6.88;2.65;;;;;;;28.92;32.94;101372.53;5069970;28;20441;-57
2022/09/04 13:57:56;;;;;;;8.90;2.80;;;;;;;28.77;33.69;101370.50;5085839;28;20045;-57
2022/09/04 14:00:24;;;;;;;14.43;2.70;;;;;;;28.77;33.88;101375.16;5083111;28;20305;-56
2022/09/04 14:02:58;;;;;;;8.88;2.53;;;;;;;28.65;33.39;101372.56;5090663;28;20048;-56
2022/09/04 14:05:30;;;;;;;10.95;2.90;;;;;;;28.88;33.87;101371.41;5088830;28;20485;-58
2022/09/04 14:08:01;;;;;;;8.38;2.80;;;;;;;28.89;33.63;101379.34;5075969;28;20075;-56
2022/09/04 14:11:08;;;;;;;8.55;2.70;;;;;;;28.80;34.57;101378.19;5055601;28;20046;-56
2022/09/04 14:14:06;;;;;;;10.20;2.55;;;;;;;28.46;34.36;101372.13;5049089;28;20491;-56
2022/09/04 14:16:35;;;;;;;8.80;2.78;;;;;;;29.50;32.31;101372.63;5049614;28;20079;-56
2022/09/04 14:19:32;;;;;;;9.95;2.50;;;;;;;29.92;31.30;101369.00;5049884;28;20053;-56
2022/09/04 14:22:27;;;;;;;10.73;3.08;;;;;;;30.96;31.06;101373.50;5049783;28;20049;-56
2022/09/04 14:25:19;;;;;;;12.75;2.60;;;;;;;32.47;27.99;101368.78;5023881;28;20041;-56
2022/09/04 14:28:25;;;;;;;8.68;2.95;;;;;;;32.35;27.17;101376.56;5049702;28;20044;-56
2022/09/04 14:31:06;;;;;;;8.45;2.70;;;;;;;33.22;26.35;101373.06;5064654;28;20098;-56
2022/09/04 14:33:55;;;;;;;11.68;2.75;;;;;;;33.26;25.47;101370.56;5069519;28;20072;-56
2022/09/04 14:36:55;;;;;;;9.32;2.92;;;;;;;32.85;25.78;101369.00;5068907;28;20409;-55
2022/09/04 14:39:39;;;;;;;10.50;3.03;;;;;;;33.44;24.56;101372.53;5068291;28;20508;-56
2022/09/04 14:42:45;;;;;;;14.05;3.13;;;;;;;33.84;24.90;101377.84;5068209;28;20049;-56
2022/09/04 14:45:42;;;;;;;9.63;3.17;;;;;;;34.08;24.45;101377.75;5069161;28;20072;-56
2022/09/04 14:48:11;;;;;;;10.73;2.90;;;;;;;34.87;22.71;101376.25;5066139;28;20041;-57
2022/09/04 14:50:58;;;;;;;9.23;2.80;;;;;;;34.49;23.18;101374.38;5055781;28;20115;-57